createdAt,value
2023-03-31T00:00:13.126Z,5.57
2023-03-31T00:02:44.888Z,4.47
2023-03-31T00:05:23.228Z,6.72
2023-03-31T00:08:08.836Z,6.05
2023-03-31T00:10:39.716Z,5.03
2023-03-31T00:13:09.462Z,5.85
2023-03-31T00:15:40.381Z,4.07
2023-03-31T00:18:11.280Z,3.53
2023-03-31T00:20:44.235Z,6.93
2023-03-31T00:23:15.714Z,6.28
2023-03-31T00:25:46.720Z,6.85
2023-03-31T00:28:16.692Z,5.43
2023-03-31T00:30:49.252Z,3.88
2023-03-31T00:33:19.426Z,12.07
2023-03-31T00:35:54.611Z,4.57
2023-03-31T00:38:25.561Z,3.47
2023-03-31T00:40:56.463Z,3.28
2023-03-31T00:43:38.586Z,7.05
2023-03-31T00:46:34.923Z,4.28
2023-03-31T00:49:05.778Z,5.63
2023-03-31T00:51:36.892Z,4.75
2023-03-31T00:54:09.743Z,3.95
2023-03-31T00:56:43.275Z,5.03
2023-03-31T00:59:14.636Z,3.75
2023-03-31T01:01:49.512Z,4.15
2023-03-31T01:04:23.623Z,5.97
2023-03-31T01:07:24.805Z,8.95
2023-03-31T01:10:01.242Z,4.00
2023-03-31T01:12:34.086Z,2.97
2023-03-31T01:15:05.645Z,7.50
2023-03-31T01:17:36.896Z,5.55
2023-03-31T01:20:23.062Z,5.28
2023-03-31T01:23:31.138Z,5.18
2023-03-31T01:26:13.444Z,9.18
2023-03-31T01:29:04.439Z,7.35
2023-03-31T01:32:12.182Z,5.63
2023-03-31T01:35:03.080Z,7.55
2023-03-31T01:38:05.654Z,8.13
2023-03-31T01:40:42.674Z,5.30
2023-03-31T01:43:21.287Z,6.57
2023-03-31T01:45:57.744Z,4.88
2023-03-31T01:48:31.307Z,6.22
2023-03-31T01:51:30.277Z,4.07
2023-03-31T01:54:45.722Z,9.25
2023-03-31T01:57:57.414Z,6.68
2023-03-31T02:00:34.571Z,4.32
2023-03-31T02:03:18.835Z,3.15
2023-03-31T02:05:57.593Z,8.70
2023-03-31T02:08:43.257Z,7.15
2023-03-31T02:11:14.749Z,9.85
2023-03-31T02:13:49.488Z,7.90
2023-03-31T02:16:25.631Z,5.70
2023-03-31T02:19:04.491Z,4.82
2023-03-31T02:21:41.371Z,4.30
2023-03-31T02:24:16.114Z,4.50
2023-03-31T02:26:59.227Z,11.25
2023-03-31T02:29:29.668Z,4.15
2023-03-31T02:32:23.906Z,5.30
2023-03-31T02:34:57.362Z,6.63
2023-03-31T02:37:29.374Z,3.80
2023-03-31T02:40:03.873Z,3.55
2023-03-31T02:42:34.040Z,10.05
2023-03-31T02:45:08.404Z,7.32
2023-03-31T02:47:39.053Z,6.55
2023-03-31T02:50:11.534Z,9.10
2023-03-31T02:52:57.971Z,6.75
2023-03-31T02:56:12.709Z,12.10
2023-03-31T02:58:56.881Z,3.83
2023-03-31T03:01:36.817Z,6.43
2023-03-31T03:04:36.822Z,4.47
2023-03-31T03:07:44.653Z,5.80
2023-03-31T03:10:34.348Z,4.40
2023-03-31T03:13:29.933Z,7.32
2023-03-31T03:16:20.042Z,5.68
2023-03-31T03:19:02.944Z,6.50
2023-03-31T03:21:34.230Z,4.32
2023-03-31T03:24:04.768Z,6.28
2023-03-31T03:26:36.289Z,5.03
2023-03-31T03:29:07.054Z,5.63
2023-03-31T03:31:37.532Z,3.30
2023-03-31T03:34:08.160Z,5.75
2023-03-31T03:36:39.519Z,5.03
2023-03-31T03:39:11.023Z,8.38
2023-03-31T03:41:42.182Z,10.00
2023-03-31T03:44:12.263Z,5.88
2023-03-31T03:46:42.598Z,4.47
2023-03-31T03:49:13.275Z,4.45
2023-03-31T03:51:44.861Z,4.70
2023-03-31T03:54:15.271Z,8.27
2023-03-31T03:56:45.226Z,15.02
2023-03-31T03:59:15.853Z,3.70
2023-03-31T04:01:46.479Z,8.93
2023-03-31T04:04:17.243Z,7.32
2023-03-31T04:06:47.012Z,13.90
2023-03-31T04:09:17.690Z,9.73
2023-03-31T04:11:48.482Z,5.50
2023-03-31T04:14:19.396Z,10.77
2023-03-31T04:16:49.520Z,5.70
2023-03-31T04:19:20.292Z,8.07
2023-03-31T04:21:59.722Z,9.35
2023-03-31T04:24:34.359Z,5.50
2023-03-31T04:27:05.991Z,9.13
2023-03-31T04:29:38.675Z,5.18
2023-03-31T04:32:09.206Z,5.40
2023-03-31T04:34:40.129Z,5.95
2023-03-31T04:37:12.037Z,5.45
2023-03-31T04:39:42.556Z,4.93
2023-03-31T04:42:12.296Z,6.32
2023-03-31T04:44:43.030Z,8.23
2023-03-31T04:47:13.583Z,6.15
2023-03-31T04:49:43.333Z,9.13
2023-03-31T04:52:13.635Z,8.15
2023-03-31T04:54:43.639Z,11.25
2023-03-31T04:57:15.939Z,9.25
2023-03-31T04:59:46.170Z,10.25
2023-03-31T05:02:24.896Z,7.93
2023-03-31T05:04:55.669Z,6.40
2023-03-31T05:07:26.158Z,6.32
2023-03-31T05:09:56.943Z,7.88
2023-03-31T05:12:27.375Z,10.55
2023-03-31T05:14:57.149Z,11.95
2023-03-31T05:17:27.733Z,6.15
2023-03-31T05:19:57.882Z,8.75
2023-03-31T05:22:29.658Z,10.93
2023-03-31T05:24:59.574Z,10.00
2023-03-31T05:27:29.401Z,11.13
2023-03-31T05:30:00.059Z,9.50
2023-03-31T05:32:30.839Z,11.98
2023-03-31T05:35:01.711Z,7.65
2023-03-31T05:37:31.844Z,12.02
2023-03-31T05:40:01.621Z,6.95
2023-03-31T05:42:32.074Z,10.77
2023-03-31T05:45:02.981Z,8.88
2023-03-31T05:47:33.717Z,8.55
2023-03-31T05:50:05.208Z,6.57
2023-03-31T05:52:36.610Z,9.45
2023-03-31T05:55:07.698Z,9.55
2023-03-31T05:57:38.226Z,7.32
2023-03-31T06:00:11.586Z,7.35
2023-03-31T06:02:42.937Z,13.88
2023-03-31T06:05:15.314Z,12.02
2023-03-31T06:07:45.954Z,7.30
2023-03-31T06:10:15.920Z,9.50
2023-03-31T06:12:46.153Z,10.10
2023-03-31T06:15:17.141Z,8.52
2023-03-31T06:17:48.195Z,7.40
2023-03-31T06:20:27.959Z,7.75
2023-03-31T06:22:58.913Z,6.20
2023-03-31T06:25:34.507Z,6.82
2023-03-31T06:28:10.966Z,7.35
2023-03-31T06:30:42.335Z,5.15
2023-03-31T06:33:14.917Z,6.00
2023-03-31T06:35:45.614Z,4.65
2023-03-31T06:38:15.923Z,12.27
2023-03-31T06:40:46.498Z,13.65
2023-03-31T06:43:16.246Z,8.52
2023-03-31T06:45:46.781Z,8.75
2023-03-31T06:48:16.680Z,8.77
2023-03-31T06:50:49.502Z,11.10
2023-03-31T06:53:20.484Z,5.72
2023-03-31T06:55:50.702Z,10.57
2023-03-31T06:58:21.054Z,13.00
2023-03-31T07:00:52.166Z,13.93
2023-03-31T07:03:26.113Z,5.60
2023-03-31T07:05:57.216Z,5.20
2023-03-31T07:08:27.628Z,6.55
2023-03-31T07:11:00.048Z,6.50
2023-03-31T07:13:31.499Z,13.02
2023-03-31T07:16:01.454Z,9.07
2023-03-31T07:18:34.963Z,7.93
2023-03-31T07:21:10.187Z,8.15
2023-03-31T07:23:41.449Z,6.85
2023-03-31T07:26:12.532Z,9.13
2023-03-31T07:28:43.138Z,9.80
2023-03-31T07:31:15.777Z,11.32
2023-03-31T07:33:46.708Z,5.93
2023-03-31T07:36:17.616Z,6.25
2023-03-31T07:38:50.358Z,8.98
2023-03-31T07:41:23.989Z,8.38
2023-03-31T07:43:54.462Z,7.40
2023-03-31T07:46:28.048Z,14.35
2023-03-31T07:48:59.911Z,9.27
2023-03-31T07:51:30.991Z,4.10
2023-03-31T07:54:01.956Z,6.88
2023-03-31T07:56:32.218Z,9.10
2023-03-31T07:59:02.232Z,8.48
2023-03-31T08:01:33.370Z,6.45
2023-03-31T08:04:05.065Z,6.50
2023-03-31T08:06:35.475Z,6.75
2023-03-31T08:09:08.216Z,7.47
2023-03-31T08:11:40.144Z,5.38
2023-03-31T08:14:10.637Z,7.55
2023-03-31T08:16:40.441Z,10.85
2023-03-31T08:19:11.052Z,6.70
2023-03-31T08:21:41.550Z,9.90
2023-03-31T08:24:12.586Z,9.63
2023-03-31T08:26:44.129Z,8.15
2023-03-31T08:29:15.672Z,7.18
2023-03-31T08:31:45.976Z,9.73
2023-03-31T08:34:17.019Z,10.40
2023-03-31T08:36:48.689Z,11.25
2023-03-31T08:39:19.465Z,7.97
2023-03-31T08:41:53.764Z,6.93
2023-03-31T08:44:42.614Z,10.20
2023-03-31T08:47:20.535Z,9.07
2023-03-31T08:49:57.931Z,7.38
2023-03-31T08:52:55.036Z,6.80
2023-03-31T08:55:33.362Z,8.00
2023-03-31T08:58:15.706Z,8.18
2023-03-31T09:01:00.300Z,8.82
2023-03-31T09:03:51.805Z,8.25
2023-03-31T09:06:50.586Z,7.10
2023-03-31T09:09:37.646Z,8.07
2023-03-31T09:12:15.172Z,10.75
2023-03-31T09:14:56.403Z,5.47
2023-03-31T09:20:17.150Z,8.35
2023-03-31T09:25:20.623Z,4.45
2023-03-31T09:27:52.750Z,7.25
2023-03-31T09:30:35.588Z,9.32
2023-03-31T09:33:34.036Z,9.35
2023-03-31T09:36:08.564Z,8.68
2023-03-31T09:38:40.917Z,6.50
2023-03-31T09:41:13.330Z,7.63
2023-03-31T09:43:44.784Z,10.70
2023-03-31T09:46:37.430Z,5.70
2023-03-31T09:49:20.542Z,11.95
2023-03-31T09:52:05.761Z,7.47
2023-03-31T09:54:47.067Z,4.40
2023-03-31T09:57:40.582Z,10.05
2023-03-31T10:00:22.794Z,13.65
2023-03-31T10:02:54.799Z,10.40
2023-03-31T10:05:38.725Z,9.18
2023-03-31T10:08:29.776Z,9.13
2023-03-31T10:11:13.270Z,12.00
2023-03-31T10:13:49.894Z,12.00
2023-03-31T10:16:47.575Z,13.07
2023-03-31T10:19:36.787Z,15.48
2023-03-31T10:22:18.392Z,13.32
2023-03-31T10:24:51.078Z,5.53
2023-03-31T10:27:26.247Z,22.40
2023-03-31T10:30:02.696Z,36.28
2023-03-31T10:32:34.838Z,25.50
2023-03-31T10:35:23.162Z,76.38
2023-03-31T10:37:58.482Z,37.70
2023-03-31T10:40:33.903Z,19.30
2023-03-31T10:43:19.806Z,77.43
2023-03-31T10:46:01.265Z,37.53
2023-03-31T10:48:43.314Z,22.95
2023-03-31T10:51:27.907Z,37.30
2023-03-31T10:54:07.513Z,39.22
2023-03-31T10:56:50.656Z,28.60
2023-03-31T10:59:49.658Z,26.25
2023-03-31T11:02:31.478Z,21.45
2023-03-31T11:05:23.964Z,9.82
2023-03-31T11:08:06.519Z,24.00
2023-03-31T11:11:14.234Z,28.30
2023-03-31T11:14:12.397Z,23.58
2023-03-31T11:17:08.328Z,22.55
2023-03-31T11:19:44.412Z,26.08
2023-03-31T11:22:23.051Z,23.67
2023-03-31T11:25:30.143Z,32.10
2023-03-31T11:28:37.669Z,23.73
2023-03-31T11:31:53.191Z,15.75
2023-03-31T11:34:43.672Z,21.63
2023-03-31T11:37:48.362Z,18.60
2023-03-31T11:40:44.145Z,10.65
2023-03-31T11:43:49.993Z,13.27
2023-03-31T11:46:32.569Z,12.60
2023-03-31T11:49:41.413Z,12.38
2023-03-31T11:52:21.313Z,10.82
2023-03-31T11:55:02.737Z,10.25
2023-03-31T12:00:31.689Z,10.00
2023-03-31T12:03:35.337Z,7.13
2023-03-31T12:06:18.172Z,10.23
2023-03-31T12:09:01.636Z,7.10
2023-03-31T12:11:42.132Z,8.02
2023-03-31T12:14:21.518Z,13.52
2023-03-31T12:17:17.429Z,8.80
2023-03-31T12:20:07.929Z,7.43
2023-03-31T12:22:57.245Z,18.35
2023-03-31T12:25:29.780Z,8.50
2023-03-31T12:28:01.157Z,7.63
2023-03-31T12:30:43.386Z,10.30
2023-03-31T12:33:44.055Z,12.77
2023-03-31T12:36:20.178Z,12.68
2023-03-31T12:39:12.511Z,9.07
2023-03-31T12:42:03.945Z,11.00
2023-03-31T12:44:49.793Z,12.57
2023-03-31T12:47:51.802Z,10.55
2023-03-31T12:50:54.967Z,10.82
2023-03-31T12:53:44.833Z,17.40
2023-03-31T12:56:15.125Z,10.25
2023-03-31T12:58:47.212Z,9.40
2023-03-31T13:01:27.934Z,9.13
2023-03-31T13:04:12.882Z,15.55
2023-03-31T13:06:44.868Z,17.17
2023-03-31T13:09:15.226Z,10.20
2023-03-31T13:11:51.689Z,10.18
2023-03-31T13:14:27.914Z,10.95
2023-03-31T13:17:20.989Z,9.15
2023-03-31T13:19:52.721Z,10.45
2023-03-31T13:22:34.126Z,8.98
2023-03-31T13:25:33.208Z,8.95
2023-03-31T13:28:17.985Z,11.90
2023-03-31T13:30:51.434Z,10.48
2023-03-31T13:33:30.376Z,18.70
2023-03-31T13:36:22.893Z,11.00
2023-03-31T13:39:12.377Z,10.32
2023-03-31T13:41:52.348Z,10.93
2023-03-31T13:44:42.506Z,11.25
2023-03-31T13:47:39.688Z,11.15
2023-03-31T13:50:35.325Z,8.82
2023-03-31T13:53:40.563Z,15.32
2023-03-31T13:59:29.613Z,5.88
2023-03-31T14:02:33.214Z,6.18
2023-03-31T14:05:24.882Z,6.20
2023-03-31T14:08:07.726Z,5.72
2023-03-31T14:10:42.487Z,7.25
2023-03-31T14:13:19.566Z,5.05
2023-03-31T14:15:54.255Z,6.35
2023-03-31T14:18:35.144Z,5.82
2023-03-31T14:21:06.227Z,9.88
2023-03-31T14:23:56.195Z,4.72
2023-03-31T14:26:35.323Z,6.72
2023-03-31T14:29:40.959Z,10.60
2023-03-31T14:32:34.128Z,12.20
2023-03-31T14:35:30.012Z,9.55
2023-03-31T14:38:03.883Z,10.65
2023-03-31T14:40:33.873Z,4.53
2023-03-31T14:43:04.731Z,6.63
2023-03-31T14:45:35.940Z,5.85
2023-03-31T14:48:15.467Z,10.32
2023-03-31T14:50:47.946Z,7.85
2023-03-31T14:53:19.568Z,6.93
2023-03-31T14:55:58.608Z,4.75
2023-03-31T14:58:36.463Z,5.35
2023-03-31T15:01:10.156Z,5.57
2023-03-31T15:03:42.743Z,4.13
2023-03-31T15:06:13.096Z,4.55
2023-03-31T15:08:43.501Z,5.88
2023-03-31T15:11:20.060Z,5.35
2023-03-31T15:14:04.416Z,8.05
2023-03-31T15:16:48.161Z,6.03
2023-03-31T15:19:26.071Z,4.60
2023-03-31T15:21:58.975Z,5.88
2023-03-31T15:24:32.749Z,10.18
2023-03-31T15:27:37.050Z,4.50
2023-03-31T15:30:17.115Z,4.93
2023-03-31T15:32:49.226Z,5.22
2023-03-31T15:35:34.325Z,8.35
2023-03-31T15:38:08.097Z,8.32
2023-03-31T15:40:41.332Z,3.88
2023-03-31T15:43:30.893Z,4.20
2023-03-31T15:46:03.013Z,4.47
2023-03-31T15:48:37.726Z,8.25
2023-03-31T15:51:17.673Z,4.25
2023-03-31T15:53:55.980Z,3.40
2023-03-31T15:56:39.626Z,4.75
2023-03-31T16:02:25.193Z,5.65
2023-03-31T16:05:00.700Z,8.00
2023-03-31T16:07:37.973Z,5.50
2023-03-31T16:10:24.380Z,4.03
2023-03-31T16:13:02.413Z,5.13
2023-03-31T16:15:39.674Z,10.00
2023-03-31T16:18:19.572Z,6.80
2023-03-31T16:20:58.027Z,10.50
2023-03-31T16:23:33.411Z,7.35
2023-03-31T16:26:04.289Z,9.82
2023-03-31T16:28:37.948Z,9.63
2023-03-31T16:31:35.810Z,7.45
2023-03-31T16:34:09.698Z,7.63
2023-03-31T16:36:40.810Z,5.50
2023-03-31T16:39:11.170Z,4.10
2023-03-31T16:41:41.029Z,5.90
2023-03-31T16:44:11.311Z,5.63
2023-03-31T16:46:42.324Z,3.22
2023-03-31T16:49:13.156Z,5.05
2023-03-31T16:51:43.438Z,4.07
2023-03-31T16:54:13.899Z,3.17
2023-03-31T16:56:44.481Z,3.28
2023-03-31T16:59:14.923Z,3.97
2023-03-31T17:01:45.464Z,5.30
2023-03-31T17:04:15.685Z,3.63
2023-03-31T17:06:47.491Z,4.97
2023-03-31T17:09:18.147Z,5.95
2023-03-31T17:11:50.093Z,2.30
2023-03-31T17:14:21.537Z,4.43
2023-03-31T17:16:53.813Z,2.22
2023-03-31T17:19:25.110Z,1.08
2023-03-31T17:21:56.239Z,3.22
2023-03-31T17:24:27.282Z,2.35
2023-03-31T17:26:58.655Z,3.90
2023-03-31T17:29:29.899Z,1.92
2023-03-31T17:31:59.899Z,3.22
2023-03-31T17:34:30.235Z,1.30
2023-03-31T17:37:00.515Z,2.00
2023-03-31T17:39:32.255Z,2.20
2023-03-31T17:42:04.145Z,1.77
2023-03-31T17:44:34.048Z,1.95
2023-03-31T17:47:03.910Z,0.90
2023-03-31T17:49:35.269Z,1.50
2023-03-31T17:52:06.752Z,2.28
2023-03-31T17:54:38.356Z,3.28
2023-03-31T17:57:09.683Z,0.90
2023-03-31T17:59:39.646Z,1.05
2023-03-31T18:02:14.105Z,5.15
2023-03-31T18:04:46.070Z,0.85
2023-03-31T18:07:18.984Z,2.28
2023-03-31T18:09:49.956Z,0.77
2023-03-31T18:12:20.784Z,3.05
2023-03-31T18:14:50.862Z,2.50
2023-03-31T18:17:20.959Z,3.92
2023-03-31T18:19:50.729Z,1.33
2023-03-31T18:22:21.426Z,4.40
2023-03-31T18:24:52.855Z,2.13
2023-03-31T18:27:25.168Z,2.53
2023-03-31T18:29:55.356Z,7.95
2023-03-31T18:32:25.490Z,3.58
2023-03-31T18:34:59.286Z,1.67
2023-03-31T18:37:30.826Z,2.40
2023-03-31T18:40:01.135Z,3.42
2023-03-31T18:42:34.656Z,2.97
2023-03-31T18:45:05.706Z,4.53
2023-03-31T18:47:37.274Z,2.10
2023-03-31T18:50:08.306Z,4.35
2023-03-31T18:52:39.612Z,2.78
2023-03-31T18:55:10.592Z,5.80
2023-03-31T18:57:40.916Z,3.53
2023-03-31T19:00:12.237Z,3.97
2023-03-31T19:02:42.884Z,5.25
2023-03-31T19:05:13.713Z,1.35
2023-03-31T19:07:46.086Z,3.15
2023-03-31T19:10:17.642Z,3.85
2023-03-31T19:12:51.256Z,4.00
2023-03-31T19:15:22.471Z,2.72
2023-03-31T19:17:53.952Z,7.22
2023-03-31T19:20:24.516Z,3.22
2023-03-31T19:22:54.501Z,6.57
2023-03-31T19:25:27.469Z,5.15
2023-03-31T19:27:58.428Z,5.18
2023-03-31T19:30:29.274Z,3.58
2023-03-31T19:32:59.447Z,5.55
2023-03-31T19:35:31.407Z,5.70
2023-03-31T19:38:02.393Z,3.80
2023-03-31T19:40:32.357Z,2.40
2023-03-31T19:43:02.339Z,11.15
2023-03-31T19:45:33.155Z,3.15
2023-03-31T19:48:03.747Z,3.80
2023-03-31T19:50:34.564Z,3.75
2023-03-31T19:53:05.240Z,7.45
2023-03-31T19:55:38.560Z,6.00
2023-03-31T19:58:09.748Z,4.53
2023-03-31T20:00:41.968Z,2.53
2023-03-31T20:03:12.972Z,3.05
2023-03-31T20:05:43.649Z,10.95
2023-03-31T20:08:14.271Z,6.57
2023-03-31T20:10:45.882Z,4.18
2023-03-31T20:13:16.989Z,5.32
2023-03-31T20:15:47.819Z,6.82
2023-03-31T20:18:18.307Z,4.45
2023-03-31T20:20:48.970Z,5.30
2023-03-31T20:23:19.021Z,4.53
2023-03-31T20:25:49.226Z,7.20
2023-03-31T20:28:20.168Z,9.23
2023-03-31T20:30:51.469Z,7.93
2023-03-31T20:33:22.634Z,8.85
2023-03-31T20:36:10.949Z,8.75
2023-03-31T20:38:43.940Z,7.30
2023-03-31T20:41:16.840Z,8.00
2023-03-31T20:43:48.523Z,7.90
2023-03-31T20:46:19.429Z,12.40
2023-03-31T20:48:52.584Z,7.05
2023-03-31T20:51:29.513Z,8.10
2023-03-31T20:54:02.548Z,4.35
2023-03-31T20:56:38.008Z,9.07
2023-03-31T20:59:11.634Z,10.60
2023-03-31T21:01:43.415Z,11.73
2023-03-31T21:04:14.793Z,14.02
2023-03-31T21:06:47.351Z,5.95
2023-03-31T21:09:18.840Z,6.80
2023-03-31T21:11:49.632Z,13.13
2023-03-31T21:14:20.820Z,6.43
2023-03-31T21:16:52.386Z,4.45
2023-03-31T21:19:22.576Z,4.07
2023-03-31T21:21:54.338Z,5.05
2023-03-31T21:24:24.927Z,4.95
2023-03-31T21:26:55.068Z,5.18
2023-03-31T21:29:24.896Z,8.93
2023-03-31T21:31:55.217Z,7.43
2023-03-31T21:34:25.456Z,11.80
2023-03-31T21:36:56.440Z,13.40
2023-03-31T21:39:27.581Z,10.18
2023-03-31T21:41:57.900Z,14.60
2023-03-31T21:44:28.566Z,11.25
2023-03-31T21:46:59.804Z,5.70
2023-03-31T21:49:29.943Z,7.30
2023-03-31T21:52:00.989Z,9.80
2023-03-31T21:54:31.331Z,4.72
2023-03-31T21:57:01.520Z,10.30
2023-03-31T21:59:31.835Z,11.80
2023-03-31T22:02:01.762Z,8.07
2023-03-31T22:04:33.190Z,5.80
2023-03-31T22:07:03.792Z,6.95
2023-03-31T22:09:35.238Z,8.30
2023-03-31T22:12:06.527Z,7.45
2023-03-31T22:14:39.112Z,9.18
2023-03-31T22:17:10.424Z,7.15
2023-03-31T22:19:41.035Z,4.78
2023-03-31T22:22:11.992Z,6.28
2023-03-31T22:24:42.736Z,7.72
2023-03-31T22:27:13.618Z,6.50
2023-03-31T22:29:44.008Z,2.38
2023-03-31T22:32:14.219Z,8.68
2023-03-31T22:34:44.024Z,8.70
2023-03-31T22:37:15.399Z,7.35
2023-03-31T22:39:46.350Z,8.25
2023-03-31T22:42:18.065Z,5.32
2023-03-31T22:44:48.208Z,5.82
2023-03-31T22:47:18.710Z,5.32
2023-03-31T22:49:49.856Z,9.20
2023-03-31T22:52:20.849Z,6.60
2023-03-31T22:54:51.079Z,10.20
2023-03-31T22:57:21.085Z,7.40
2023-03-31T22:59:51.806Z,7.95
2023-03-31T23:02:22.722Z,8.13
2023-03-31T23:04:53.335Z,6.93
2023-03-31T23:07:24.318Z,2.42
2023-03-31T23:09:55.042Z,3.53
2023-03-31T23:12:28.350Z,3.22
2023-03-31T23:14:58.976Z,4.65
2023-03-31T23:17:29.825Z,3.97
2023-03-31T23:20:00.838Z,5.20
2023-03-31T23:22:30.958Z,2.78
2023-03-31T23:25:03.045Z,4.65
2023-03-31T23:27:33.543Z,5.25
2023-03-31T23:30:04.434Z,2.58
2023-03-31T23:32:34.923Z,6.93
2023-03-31T23:35:05.664Z,3.28
2023-03-31T23:37:35.425Z,3.05
2023-03-31T23:40:06.922Z,3.20
2023-03-31T23:42:37.580Z,4.78
2023-03-31T23:45:08.587Z,3.47
2023-03-31T23:47:42.744Z,3.05
2023-03-31T23:50:13.221Z,3.22
2023-03-31T23:52:43.884Z,4.93
2023-03-31T23:55:16.478Z,2.15
2023-03-31T23:57:46.811Z,2.13
